默认 日期 大小 文件数 浏览量 最新下载 xml
case of磁力链接相关资源由用户搜索指令自动获取,结果来源于网络,本站不存储任何资料,亦不承担任何责任,请于24小时内删除,搜索到3011个磁力,用时26ms。
    {"nfo.nfo": 3226, "resurrected.jpg": 149421, "The Resurrected (1992).mkv": 1701022499}
创建时间: 2021-05-18 23:17:29 大小:1.58 GB 文件数量:3 热度:5 最近下载:2025-07-30 15:49:01
    {"tsbj.02.11.16.bailey.jay_720.wmv": 139954725}
创建时间: 2021-05-19 19:56:09 大小:133.47 MB 文件数量:1 热度:14 最近下载:2025-09-17 08:49:10
    {"THEPIRATEBAY.ORG.url": 133, "The Curious Case of Benjamin Button (2008) 1080p.BluRay.x264.Full 744MB.exe": 744411136}
创建时间: 2021-05-20 09:15:11 大小:709.93 MB 文件数量:2 热度:6 最近下载:2025-02-04 22:54:05
    {"J.H.exe": 65847789, "ResourceRG_Games_NFO.nfo": 17585, "Torrent downloaded from Demonoid.com.txt": 47}
创建时间: 2021-05-20 23:43:42 大小:62.81 MB 文件数量:3 热度:4 最近下载:2025-01-23 14:14:07
    ... ": 270664, "the-case-of-charles-dexter-ward_meta.xml": 801, "the-case-of-charles-dexter ...
创建时间: 2021-05-23 17:45:04 大小:300.1 MB 文件数量:45 热度:3 最近下载:2025-01-24 07:13:03
    {"THEPIRATEBAY.ORG.url": 133, "The Curious Case of Benjamin Button (2008) 1080p.BluRay.x264.Full 744MB.exe": 829307392}
创建时间: 2021-06-13 18:43:03 大小:790.89 MB 文件数量:2 热度:8 最近下载:2025-03-16 15:47:01
    {"A.Case.of.You.2013.SLOSubs.DVDRip.XViD-BLiNK.avi": 1478436864, "A.Case.of.You.2013.SLOSubs.DVDRip.XViD-BLiNK.srt": 82448}
创建时间: 2021-06-14 05:38:10 大小:1.38 GB 文件数量:2 热度:4 最近下载:2025-01-10 06:56:05
    {"Torrent downloaded from Demonoid.com.txt": 47, "The Curious Case of Santa Claus (1982) Jon Pertwee of Doctor Who [VHS Rip (DivX)].divx": 548206318}
创建时间: 2021-06-15 20:19:25 大小:522.81 MB 文件数量:2 热度:4 最近下载:2025-02-27 15:59:04
    {"THEPIRATEBAY.ORG.url": 133, "The Curious Case of Benjamin Button (2008) 1080p.BluRay.x264.Full 744MB.exe": 797647360}
创建时间: 2021-06-23 10:49:00 大小:760.7 MB 文件数量:2 热度:6 最近下载:2025-02-03 13:33:02
    {"THEPIRATEBAY.ORG.url": 133, "The Curious Case of Benjamin Button (2008) 1080p.BluRay.x264.Full 744MB.exe": 797647360}
创建时间: 2021-06-23 13:46:57 大小:760.7 MB 文件数量:2 热度:2 最近下载:2025-01-08 14:58:02
    ... I).flac": 73649998, "09 - Daughters of Darkness.flac": 89572984, "10 - You ...
创建时间: 2021-06-27 21:46:19 大小:890.78 MB 文件数量:14 热度:1 最近下载:2025-01-26 19:51:01
    ... Fire.mp3": 9697764, "02. Ends Of The Earth.mp3": 7689473, "14 ...
创建时间: 2021-06-28 06:41:19 大小:132.55 MB 文件数量:17 热度:4 最近下载:2025-02-25 13:41:02
    {"more books, audiobooks, magazines etc..txt": 932, "The Case of the Murderous Dr. Cream_ The Hunt for a Victorian Era Serial Killer by Dean Jobb.epub": 35730178}
创建时间: 2021-07-03 19:36:54 大小:34.08 MB 文件数量:2 热度:10 最近下载:2025-02-21 07:41:05
    {"THEPIRATEBAY.ORG.url": 133, "The Curious Case of Benjamin Button (2008) 1080p.BluRay.x264.Full 744MB.exe": 744000000}
创建时间: 2021-07-04 21:23:15 大小:709.53 MB 文件数量:2 热度:3 最近下载:2025-02-15 16:45:03
    {"THEPIRATEBAY.ORG.url": 133, "The Curious Case of Benjamin Button (2008) 1080p.BluRay.x264.Full 744MB.exe": 744000000}
创建时间: 2021-07-05 08:09:21 大小:709.53 MB 文件数量:2 热度:9 最近下载:2025-03-12 11:56:02
    ... 5057286, "09. The Sisters Of Mercy - This corrosion.mp3": ... 5710557, "04. The Sisters Of Mercy - Detonation boulevard.mp3": ... , "02. The Sisters Of Mercy - Temple of love (1992).mp3": 11704098 ... , "07. The Sisters Of Mercy - Lucretia my reflection.mp3 ...
创建时间: 2021-07-05 20:19:41 大小:101.46 MB 文件数量:14 热度:6 最近下载:2025-10-02 07:21:01
    {"THEPIRATEBAY.ORG.url": 133, "The Curious Case of Benjamin Button (2008) 1080p.BluRay.x264.Full 744MB.exe": 744000000}
创建时间: 2021-07-06 05:39:21 大小:709.53 MB 文件数量:2 热度:6 最近下载:2025-05-02 03:25:02
    {"THEPIRATEBAY.ORG.url": 133, "The Curious Case of Benjamin Button (2008) 1080p.BluRay.x264.Full 744MB.exe": 744000000}
创建时间: 2021-07-06 17:01:56 大小:709.53 MB 文件数量:2 热度:3 最近下载:2025-01-02 03:58:02
    {"01.jpg": 361299, "02.jpg": 326019, "03.jpg": 365870, "04.jpg": 238254, "05.jpg": 170532, "06.jpg": 200517, "07.jpg": 268696, "08.jpg": 202702, "09.jpg": 276337, "10.jpg": 328589, "11.jpg": 449561, "12.jpg": 238409, "13.jpg": 401377, "14.jpg": 325437, "15 ...
创建时间: 2021-07-06 18:15:30 大小:13.22 MB 文件数量:43 热度:5 最近下载:2025-05-16 19:02:07
    {"cover.jpg": 73711, "5. The Truth.mp3": 10702934, "2. Sidewalking.mp3": 7219244, "4. She Radiates.mp3": 9293366, "1. Not Changing Me.mp3": 7846183, "3. A Bad Case of the Blues.mp3": 7046836}
创建时间: 2021-07-10 13:19:48 大小:40.23 MB 文件数量:6 热度:2 最近下载:2025-01-05 04:56:02